Time;durP1;ratioP1;P1;durP2;ratioP2;P2;SDS_P1;SDS_P2;PMS_P1;PMS_P2;Temp;Humidity;BMP_temperature;BMP_pressure;BME280_temperature;BME280_humidity;BME280_pressure;Samples;Min_cycle;Max_cycle;Signal;HPM_P1;HPM_P2
2022/07/17 00:01:27;;;;;;;3.25;2.10;;;16.40;77.20;;;;;;5018033;28;20405;-72
2022/07/17 00:03:59;;;;;;;4.55;2.25;;;16.40;77.60;;;;;;5042949;28;20051;-72
2022/07/17 00:06:30;;;;;;;2.63;2.10;;;16.30;77.70;;;;;;5045071;28;20037;-71
2022/07/17 00:09:02;;;;;;;4.72;2.10;;;16.30;77.90;;;;;;5024542;28;20038;-72
2022/07/17 00:11:34;;;;;;;2.33;2.03;;;16.20;78.30;;;;;;5020621;28;20525;-72
2022/07/17 00:14:06;;;;;;;3.25;2.30;;;16.10;78.60;;;;;;5034763;28;20053;-71
2022/07/17 00:16:38;;;;;;;5.35;2.50;;;16.10;78.70;;;;;;5041348;28;20393;-72
2022/07/17 00:19:09;;;;;;;2.75;2.30;;;16.00;79.20;;;;;;5018959;28;20045;-71
2022/07/17 00:21:42;;;;;;;2.67;2.13;;;15.90;79.40;;;;;;5016830;28;20475;-71
2022/07/17 00:24:19;;;;;;;3.10;2.80;;;15.90;79.50;;;;;;5044096;28;20055;-71
2022/07/17 00:26:52;;;;;;;3.67;2.58;;;15.90;79.70;;;;;;5062415;28;20101;-71
2022/07/17 00:29:24;;;;;;;7.68;4.15;;;15.80;79.80;;;;;;5053107;28;20685;-71
2022/07/17 00:31:55;;;;;;;4.32;2.13;;;15.80;80.00;;;;;;5036010;28;20378;-70
2022/07/17 00:34:27;;;;;;;3.35;2.38;;;15.80;80.30;;;;;;5021537;28;20052;-71
2022/07/17 00:36:59;;;;;;;4.45;2.70;;;15.80;80.30;;;;;;5027884;28;20144;-72
2022/07/17 00:39:31;;;;;;;2.75;2.45;;;15.70;80.70;;;;;;5012745;28;20504;-71
2022/07/17 00:42:03;;;;;;;3.22;2.40;;;15.60;81.20;;;;;;5013751;28;20410;-72
2022/07/17 00:44:34;;;;;;;4.20;2.45;;;15.50;81.50;;;;;;5023233;28;20057;-72
2022/07/17 00:47:16;;;;;;;4.13;2.50;;;15.50;81.80;;;;;;5024181;28;20499;-71
2022/07/17 00:49:48;;;;;;;3.42;2.60;;;15.50;81.80;;;;;;5010440;28;20063;-71
2022/07/17 00:52:19;;;;;;;5.32;2.30;;;15.50;82.10;;;;;;5021058;28;20413;-71
2022/07/17 00:54:47;;;;;;;2.72;2.40;;;15.40;82.20;;;;;;5044652;28;20059;-71
2022/07/17 00:57:20;;;;;;;2.30;2.00;;;15.40;82.20;;;;;;5040027;28;20048;-71
2022/07/17 00:59:52;;;;;;;4.28;2.70;;;15.40;82.70;;;;;;5026245;28;20092;-71
2022/07/17 01:02:24;;;;;;;5.60;2.67;;;15.30;82.80;;;;;;5019838;28;20041;-72
2022/07/17 01:04:55;;;;;;;3.60;2.40;;;15.30;83.00;;;;;;5036780;28;20051;-71
2022/07/17 01:07:27;;;;;;;5.65;2.53;;;15.20;83.30;;;;;;5017970;28;20058;-71
2022/07/17 01:09:59;;;;;;;5.45;2.50;;;15.20;83.40;;;;;;5035138;28;20043;-71
2022/07/17 01:12:33;;;;;;;2.83;2.28;;;15.20;83.50;;;;;;5024251;28;20037;-72
2022/07/17 01:15:00;;;;;;;3.67;2.90;;;15.20;83.80;;;;;;5020188;28;20053;-72
2022/07/17 01:17:32;;;;;;;8.30;2.67;;;15.00;84.10;;;;;;5037406;28;20041;-71
2022/07/17 01:20:01;;;;;;;3.30;2.78;;;15.00;84.50;;;;;;5020397;28;20413;-72
2022/07/17 01:22:49;;;;;;;10.77;3.20;;;15.00;84.60;;;;;;5040149;28;20029;-72
2022/07/17 01:25:22;;;;;;;3.35;2.60;;;15.00;84.30;;;;;;5028414;28;20056;-71
2022/07/17 01:27:54;;;;;;;5.82;2.65;;;15.00;84.40;;;;;;5023158;28;20049;-71
2022/07/17 01:30:26;;;;;;;4.93;3.03;;;15.00;84.40;;;;;;5037136;28;20061;-71
2022/07/17 01:32:58;;;;;;;3.10;2.63;;;15.00;84.40;;;;;;5026283;28;20043;-71
2022/07/17 01:35:40;;;;;;;5.45;2.72;;;15.00;84.60;;;;;;5026690;28;20048;-72
2022/07/17 01:38:12;;;;;;;4.82;2.40;;;14.90;84.70;;;;;;4994065;28;20050;-72
2022/07/17 01:40:43;;;;;;;3.15;2.85;;;14.90;85.20;;;;;;4982916;28;20047;-72
2022/07/17 01:43:10;;;;;;;5.03;2.75;;;14.90;85.30;;;;;;4997895;28;20054;-72
2022/07/17 01:45:42;;;;;;;4.80;3.20;;;14.80;85.50;;;;;;4981598;28;20042;-72
2022/07/17 01:48:27;;;;;;;5.80;2.95;;;14.80;85.80;;;;;;5003456;28;20046;-72
2022/07/17 01:50:59;;;;;;;4.05;2.47;;;14.70;86.10;;;;;;5004531;28;20044;-72
2022/07/17 01:53:26;;;;;;;3.70;2.90;;;14.70;86.10;;;;;;5001049;28;20043;-72
2022/07/17 01:55:57;;;;;;;7.07;3.17;;;14.60;86.30;;;;;;5016290;28;20049;-70
2022/07/17 01:58:29;;;;;;;5.57;2.65;;;14.60;86.30;;;;;;4986248;28;20046;-72
2022/07/17 02:01:01;;;;;;;3.95;2.92;;;14.60;86.70;;;;;;5005547;28;20056;-72
2022/07/17 02:03:33;;;;;;;3.20;2.90;;;14.60;87.00;;;;;;4984067;28;20057;-71
2022/07/17 02:06:04;;;;;;;6.07;2.58;;;14.50;87.20;;;;;;4999441;28;20041;-71
2022/07/17 02:08:36;;;;;;;4.25;2.92;;;14.50;87.50;;;;;;5001989;28;20049;-72
2022/07/17 02:11:08;;;;;;;4.32;3.50;;;14.40;87.80;;;;;;5004852;28;20045;-72
2022/07/17 02:13:40;;;;;;;4.97;3.10;;;14.40;88.00;;;;;;5003427;28;20386;-72
2022/07/17 02:16:11;;;;;;;5.00;2.97;;;14.40;89.10;;;;;;5001380;28;20072;-72
2022/07/17 02:18:43;;;;;;;6.80;3.20;;;14.30;88.60;;;;;;5017233;28;20089;-72
2022/07/17 02:21:15;;;;;;;3.00;2.70;;;14.30;88.60;;;;;;5002511;28;20125;-72
2022/07/17 02:23:47;;;;;;;6.97;3.13;;;14.30;89.00;;;;;;4977652;28;20498;-72
2022/07/17 02:26:19;;;;;;;3.03;2.70;;;14.20;89.20;;;;;;4997846;28;20113;-72
2022/07/17 02:28:50;;;;;;;3.97;2.60;;;14.10;89.50;;;;;;5003944;28;20056;-72
2022/07/17 02:31:22;;;;;;;3.67;2.80;;;14.00;90.20;;;;;;5002773;28;20061;-71
2022/07/17 02:33:54;;;;;;;6.05;2.67;;;14.00;89.80;;;;;;5016185;28;20410;-72
2022/07/17 02:36:26;;;;;;;3.80;2.78;;;14.10;89.80;;;;;;4998323;28;20039;-71
2022/07/17 02:38:58;;;;;;;3.60;2.50;;;14.10;89.80;;;;;;5014187;28;20108;-72
2022/07/17 02:41:29;;;;;;;3.67;3.20;;;14.10;89.50;;;;;;4984077;28;20125;-72
2022/07/17 02:44:01;;;;;;;3.45;3.10;;;14.10;89.50;;;;;;4995451;28;20053;-71
2022/07/17 02:46:33;;;;;;;5.00;2.88;;;14.00;89.80;;;;;;4980321;28;20052;-72
2022/07/17 02:49:06;;;;;;;3.75;2.58;;;14.00;90.10;;;;;;4983951;28;20038;-72
2022/07/17 02:51:37;;;;;;;4.32;2.88;;;14.00;90.60;;;;;;4996183;28;20049;-72
2022/07/17 02:54:09;;;;;;;4.93;2.85;;;13.90;90.30;;;;;;4994135;28;20043;-72
2022/07/17 02:56:41;;;;;;;5.05;3.03;;;13.90;90.40;;;;;;4982780;28;20047;-72
2022/07/17 02:59:12;;;;;;;3.20;2.85;;;13.70;90.60;;;;;;4985217;28;20053;-72
2022/07/17 03:01:44;;;;;;;3.28;2.95;;;13.70;90.80;;;;;;4980586;28;20053;-72
2022/07/17 03:04:16;;;;;;;4.20;2.92;;;13.70;90.90;;;;;;5012785;28;20142;-72
2022/07/17 03:06:47;;;;;;;5.28;2.67;;;13.60;91.10;;;;;;4984520;28;20042;-72
2022/07/17 03:09:19;;;;;;;3.45;2.92;;;13.60;91.40;;;;;;4987226;28;20249;-72
2022/07/17 03:11:52;;;;;;;3.97;3.03;;;13.60;91.20;;;;;;5000767;28;20525;-71
2022/07/17 03:14:24;;;;;;;3.60;2.80;;;13.60;91.20;;;;;;4984851;28;20055;-72
2022/07/17 03:16:55;;;;;;;3.83;2.92;;;13.60;91.30;;;;;;5001125;28;20345;-71
2022/07/17 03:19:27;;;;;;;4.25;3.15;;;13.50;91.70;;;;;;4988175;28;20050;-72
2022/07/17 03:21:59;;;;;;;5.78;3.17;;;13.60;91.40;;;;;;4986294;28;20510;-72
2022/07/17 03:24:30;;;;;;;4.95;3.42;;;13.50;91.50;;;;;;4996997;28;20054;-72
2022/07/17 03:27:02;;;;;;;4.35;3.30;;;13.50;91.50;;;;;;5014934;28;20133;-72
2022/07/17 03:29:34;;;;;;;7.03;2.97;;;13.50;91.60;;;;;;4989617;28;20042;-72
2022/07/17 03:32:06;;;;;;;12.15;3.55;;;13.50;91.60;;;;;;5001776;28;20046;-72
2022/07/17 03:34:38;;;;;;;5.10;2.97;;;13.50;91.70;;;;;;4984963;28;20414;-72
2022/07/17 03:37:10;;;;;;;4.05;2.92;;;13.60;91.80;;;;;;4996051;28;20485;-71
2022/07/17 03:39:42;;;;;;;3.83;3.42;;;13.60;91.80;;;;;;5001202;28;20047;-71
2022/07/17 03:42:13;;;;;;;7.40;4.38;;;13.50;91.80;;;;;;4997297;28;20510;-72
2022/07/17 03:44:45;;;;;;;6.60;4.40;;;13.50;92.10;;;;;;4982547;28;20080;-72
2022/07/17 03:47:17;;;;;;;5.63;3.30;;;13.50;92.40;;;;;;4984256;28;20038;-72
2022/07/17 03:49:49;;;;;;;5.90;3.35;;;13.50;92.10;;;;;;4985178;28;20060;-72
2022/07/17 03:52:20;;;;;;;4.97;3.28;;;13.30;92.00;;;;;;4967140;28;20102;-72
2022/07/17 03:54:52;;;;;;;6.28;3.22;;;13.20;92.10;;;;;;4984862;28;20047;-72
2022/07/17 03:57:24;;;;;;;7.88;3.60;;;13.20;92.30;;;;;;4966600;28;20043;-72
2022/07/17 03:59:55;;;;;;;10.43;3.58;;;13.20;92.40;;;;;;4999882;28;20718;-72
2022/07/17 04:02:37;;;;;;;5.55;3.47;;;13.20;92.70;;;;;;4998955;28;20105;-72
2022/07/17 04:05:10;;;;;;;8.13;3.80;;;13.10;92.80;;;;;;4983908;28;20046;-72
2022/07/17 04:07:42;;;;;;;5.47;3.40;;;13.10;93.10;;;;;;4984968;28;20030;-71
2022/07/17 04:10:14;;;;;;;5.10;3.55;;;13.00;93.30;;;;;;4985812;28;20038;-72
2022/07/17 04:12:47;;;;;;;7.20;3.47;;;13.00;93.40;;;;;;5000740;28;20097;-72
2022/07/17 04:18:09;;;;;;;7.28;3.95;;;12.90;93.90;;;;;;4984186;28;20049;-72
2022/07/17 04:20:41;;;;;;;4.57;3.45;;;12.90;94.10;;;;;;4985745;28;20046;-72
2022/07/17 04:23:13;;;;;;;3.75;3.22;;;12.90;94.20;;;;;;4996166;28;20069;-72
2022/07/17 04:25:45;;;;;;;4.47;3.13;;;12.90;94.40;;;;;;4981481;28;20050;-72
2022/07/17 04:28:17;;;;;;;5.90;3.53;;;13.00;94.50;;;;;;4986435;28;20603;-72
2022/07/17 04:30:49;;;;;;;3.50;3.20;;;13.00;94.50;;;;;;4987090;28;20047;-71
2022/07/17 04:33:21;;;;;;;3.67;3.35;;;13.10;94.60;;;;;;4996656;28;20043;-72
2022/07/17 04:35:48;;;;;;;4.85;3.45;;;13.10;94.60;;;;;;4973902;28;20057;-72
2022/07/17 04:38:19;;;;;;;4.78;3.55;;;13.20;94.60;;;;;;4998276;28;20513;-71
2022/07/17 04:40:46;;;;;;;4.32;3.78;;;13.20;94.60;;;;;;4969382;28;20134;-72
2022/07/17 04:43:18;;;;;;;6.88;5.05;;;13.30;94.90;;;;;;4967210;28;20069;-72
2022/07/17 04:45:50;;;;;;;11.23;5.60;;;13.40;94.80;;;;;;4963539;28;20419;-71
2022/07/17 04:48:21;;;;;;;21.25;6.95;;;13.40;94.60;;;;;;4983244;28;20042;-72
2022/07/17 04:50:53;;;;;;;29.58;18.10;;;13.50;94.60;;;;;;5002262;28;20062;-72
2022/07/17 04:53:25;;;;;;;55.95;40.10;;;13.50;94.70;;;;;;4982521;28;20051;-72
2022/07/17 04:55:57;;;;;;;21.58;15.60;;;13.50;95.30;;;;;;4982647;28;20050;-70
2022/07/17 04:58:29;;;;;;;21.30;15.55;;;13.60;95.50;;;;;;4981686;28;20047;-72
2022/07/17 05:01:00;;;;;;;26.25;15.98;;;13.60;95.70;;;;;;4984293;28;20147;-72
2022/07/17 05:03:32;;;;;;;20.30;11.35;;;13.60;95.80;;;;;;4981922;28;20082;-72
2022/07/17 05:06:04;;;;;;;14.65;9.20;;;13.70;96.00;;;;;;4980168;28;20050;-72
2022/07/17 05:08:36;;;;;;;16.73;9.38;;;13.60;96.30;;;;;;4984944;28;20403;-72
2022/07/17 05:11:08;;;;;;;15.13;11.25;;;13.60;96.50;;;;;;4986437;28;20097;-72
2022/07/17 05:13:40;;;;;;;20.38;12.43;;;13.60;96.60;;;;;;4981948;28;20509;-71
2022/07/17 05:16:12;;;;;;;12.68;8.50;;;13.70;96.50;;;;;;4987932;28;20046;-72
2022/07/17 05:18:43;;;;;;;16.40;7.22;;;13.80;96.80;;;;;;4994186;28;20047;-72
2022/07/17 05:21:10;;;;;;;8.45;6.88;;;13.70;97.40;;;;;;4985762;28;20057;-72
2022/07/17 05:23:42;;;;;;;11.95;7.63;;;13.80;97.40;;;;;;4981012;28;20050;-72
2022/07/17 05:26:09;;;;;;;11.52;7.85;;;13.80;97.40;;;;;;4984936;28;20221;-72
2022/07/17 05:28:40;;;;;;;9.68;5.85;;;13.80;97.40;;;;;;4994393;28;20031;-72
2022/07/17 05:31:12;;;;;;;11.90;6.95;;;13.90;97.50;;;;;;5003940;28;20053;-72
2022/07/17 05:33:44;;;;;;;7.25;5.90;;;13.90;97.60;;;;;;4995641;28;20643;-72
2022/07/17 05:36:16;;;;;;;10.35;6.47;;;13.90;97.40;;;;;;4973904;28;22812;-71
2022/07/17 05:38:47;;;;;;;9.18;6.00;;;13.90;97.40;;;;;;5006767;28;20430;-71
2022/07/17 05:41:19;;;;;;;6.07;5.38;;;13.90;97.80;;;;;;5005851;28;20052;-72
2022/07/17 05:43:51;;;;;;;8.50;5.68;;;14.00;97.50;;;;;;4998163;28;20080;-72
2022/07/17 05:46:17;;;;;;;7.47;6.20;;;14.10;97.60;;;;;;4990412;28;20039;-72
2022/07/17 05:48:49;;;;;;;9.88;6.68;;;14.20;97.60;;;;;;4985515;28;20051;-72
2022/07/17 05:51:21;;;;;;;11.65;6.50;;;14.20;97.80;;;;;;4970278;28;20043;-71
2022/07/17 05:53:52;;;;;;;9.13;6.90;;;14.30;97.90;;;;;;4997967;28;20042;-72
2022/07/17 05:56:24;;;;;;;9.75;6.50;;;14.40;97.60;;;;;;4982112;28;20053;-79
2022/07/17 05:58:56;;;;;;;9.65;6.55;;;14.50;97.70;;;;;;5000958;28;20074;-72
2022/07/17 06:01:28;;;;;;;7.03;6.32;;;14.60;97.70;;;;;;4981954;28;20557;-72
2022/07/17 06:03:59;;;;;;;11.82;7.70;;;14.60;97.50;;;;;;4985879;28;20050;-73
2022/07/17 06:06:31;;;;;;;12.00;7.47;;;14.70;97.90;;;;;;4980629;28;20038;-73
2022/07/17 06:09:03;;;;;;;7.70;6.78;;;14.70;98.30;;;;;;4983143;28;20062;-72
2022/07/17 06:11:35;;;;;;;8.75;7.30;;;14.80;98.30;;;;;;4982564;28;20043;-72
2022/07/17 06:14:06;;;;;;;11.40;7.28;;;14.90;98.20;;;;;;4995860;28;20426;-70
2022/07/17 06:16:38;;;;;;;10.82;6.10;;;15.00;97.90;;;;;;4982288;28;20057;-72
2022/07/17 06:19:10;;;;;;;11.55;6.72;;;15.10;98.00;;;;;;4983411;28;20042;-72
2022/07/17 06:21:41;;;;;;;7.53;6.82;;;15.10;97.40;;;;;;4982026;28;20038;-71
2022/07/17 06:24:13;;;;;;;6.93;6.28;;;15.20;97.40;;;;;;4986125;28;20057;-71
2022/07/17 06:26:40;;;;;;;8.15;6.57;;;15.20;97.40;;;;;;4983937;28;20046;-72
2022/07/17 06:29:12;;;;;;;8.52;7.38;;;15.40;97.40;;;;;;4984808;28;20529;-72
2022/07/17 06:31:43;;;;;;;8.65;6.55;;;15.50;97.10;;;;;;4986654;28;20042;-72
2022/07/17 06:34:10;;;;;;;7.78;6.95;;;15.60;97.10;;;;;;4985118;28;20046;-71
2022/07/17 06:36:42;;;;;;;10.15;6.35;;;15.60;96.80;;;;;;5005085;28;20041;-72
2022/07/17 06:39:14;;;;;;;8.02;6.18;;;15.70;96.80;;;;;;5000157;28;20053;-72
2022/07/17 06:41:46;;;;;;;7.18;6.47;;;15.80;96.40;;;;;;4992924;28;20402;-72
2022/07/17 06:44:17;;;;;;;7.60;5.95;;;15.90;96.10;;;;;;4994436;28;20513;-71
2022/07/17 06:46:50;;;;;;;7.15;5.50;;;16.00;96.10;;;;;;5003839;28;20038;-72
2022/07/17 06:49:21;;;;;;;7.75;6.00;;;16.10;96.10;;;;;;5001865;28;20037;-72
2022/07/17 06:51:53;;;;;;;11.02;5.78;;;16.20;95.50;;;;;;5016931;28;20049;-71
2022/07/17 06:54:25;;;;;;;8.10;5.70;;;16.30;95.30;;;;;;5006762;28;20042;-72
2022/07/17 06:56:57;;;;;;;7.03;5.53;;;16.30;94.80;;;;;;4985268;28;20048;-72
2022/07/17 06:59:29;;;;;;;6.93;5.45;;;16.50;94.80;;;;;;5011394;28;20070;-72
2022/07/17 07:02:01;;;;;;;5.82;5.25;;;16.60;95.00;;;;;;4995604;28;20049;-72
2022/07/17 07:04:32;;;;;;;5.70;5.20;;;16.70;94.40;;;;;;5008505;28;20061;-72
2022/07/17 07:07:04;;;;;;;8.15;5.00;;;16.90;94.00;;;;;;5003001;28;20042;-72
2022/07/17 07:09:32;;;;;;;6.18;5.22;;;17.00;93.80;;;;;;5005012;28;20092;-71
2022/07/17 07:12:04;;;;;;;9.10;5.78;;;17.10;93.60;;;;;;5005179;28;20046;-72
2022/07/17 07:14:36;;;;;;;6.88;4.43;;;17.30;93.40;;;;;;4981738;28;20046;-72
2022/07/17 07:17:08;;;;;;;7.22;4.50;;;17.50;92.50;;;;;;5003712;28;20057;-72
2022/07/17 07:19:39;;;;;;;6.28;4.80;;;17.60;92.80;;;;;;5009710;28;20495;-71
2022/07/17 07:22:11;;;;;;;7.82;4.53;;;17.80;92.10;;;;;;4996235;28;20532;-72
2022/07/17 07:24:43;;;;;;;7.57;4.72;;;17.90;91.80;;;;;;4995027;28;20415;-72
2022/07/17 07:27:14;;;;;;;7.20;3.92;;;18.10;91.20;;;;;;5001056;28;20506;-72
2022/07/17 07:29:46;;;;;;;5.47;4.10;;;18.20;91.20;;;;;;5000832;28;20042;-71
2022/07/17 07:32:18;;;;;;;7.22;3.80;;;18.40;90.70;;;;;;5001977;28;20044;-72
2022/07/17 07:34:50;;;;;;;5.40;3.70;;;18.50;90.40;;;;;;5000243;28;20039;-72
2022/07/17 07:37:21;;;;;;;5.15;3.30;;;18.60;90.00;;;;;;4981405;28;20454;-72
2022/07/17 07:39:53;;;;;;;3.95;3.40;;;18.80;89.40;;;;;;4998461;28;20046;-72
2022/07/17 07:42:26;;;;;;;7.40;3.97;;;18.90;89.60;;;;;;5002108;28;20091;-72
2022/07/17 07:44:57;;;;;;;4.03;3.70;;;19.00;89.20;;;;;;5001539;28;20194;-71
2022/07/17 07:47:29;;;;;;;3.85;3.20;;;19.10;88.20;;;;;;4998319;28;20042;-72
2022/07/17 07:50:01;;;;;;;5.70;3.65;;;19.30;88.10;;;;;;5002264;28;20402;-72
2022/07/17 07:52:33;;;;;;;3.50;3.20;;;19.40;86.10;;;;;;5005005;28;20038;-72
2022/07/17 07:55:05;;;;;;;4.78;3.42;;;19.50;85.40;;;;;;5016831;28;20042;-72
2022/07/17 07:57:37;;;;;;;4.77;3.37;;;19.70;85.90;;;;;;5006158;28;20048;-72
2022/07/17 08:00:11;;;;;;;4.85;3.40;;;19.90;84.00;;;;;;5002496;28;20277;-72
2022/07/17 08:02:42;;;;;;;6.35;3.47;;;20.00;82.90;;;;;;5005279;23;20073;-90
2022/07/17 08:05:14;;;;;;;6.75;2.92;;;20.10;83.70;;;;;;4988339;28;20049;-89
2022/07/17 08:07:46;;;;;;;4.60;3.00;;;20.30;82.20;;;;;;4946024;29;20126;-89
2022/07/17 08:10:18;;;;;;;5.15;3.38;;;20.50;82.10;;;;;;4948945;28;20409;-89
2022/07/17 08:12:50;;;;;;;6.38;3.25;;;20.60;80.80;;;;;;4982108;28;20059;-90
2022/07/17 08:15:22;;;;;;;5.15;3.22;;;20.70;80.60;;;;;;4977620;28;20049;-89
2022/07/17 08:17:51;;;;;;;6.78;3.15;;;20.80;79.80;;;;;;4960081;28;20039;-90
2022/07/17 08:20:19;;;;;;;6.30;3.20;;;21.00;79.70;;;;;;4970895;28;20042;-90
2022/07/17 08:22:48;;;;;;;4.47;3.03;;;21.10;79.60;;;;;;4971771;28;20129;-92
2022/07/17 08:25:19;;;;;;;;;;;21.30;78.20;;;;;;4974638;28;20149;-90
2022/07/17 08:27:51;;;;;;;3.53;2.90;;;21.40;78.80;;;;;;4957059;28;19922;-89
2022/07/17 08:30:18;;;;;;;4.18;2.70;;;21.50;77.40;;;;;;4960171;28;20043;-90
2022/07/17 08:32:45;;;;;;;7.07;3.40;;;21.60;75.80;;;;;;4965687;28;20490;-90
2022/07/17 08:35:12;;;;;;;7.03;3.28;;;21.70;75.30;;;;;;4953215;28;20150;-91
2022/07/17 08:37:46;;;;;;;4.18;3.25;;;21.80;74.60;;;;;;4963679;28;20046;-90
2022/07/17 08:40:24;;;;;;;3.92;2.90;;;22.00;74.30;;;;;;4947194;28;20047;-92
2022/07/17 08:42:58;;;;;;;3.55;2.72;;;22.10;72.60;;;;;;4982071;28;20126;-90
2022/07/17 08:45:25;;;;;;;5.82;2.80;;;22.30;71.10;;;;;;4960174;28;20051;-90
2022/07/17 08:47:54;;;;;;;4.22;2.70;;;22.40;70.00;;;;;;4938381;28;20031;-92
2022/07/17 08:50:29;;;;;;;6.28;2.70;;;22.50;69.70;;;;;;4949948;28;20046;-89
2022/07/17 08:53:02;;;;;;;3.40;2.60;;;22.70;65.30;;;;;;4938590;28;20071;-90
2022/07/17 08:55:29;;;;;;;4.03;2.20;;;22.80;67.10;;;;;;4936443;29;20477;-88
2022/07/17 08:57:56;;;;;;;8.02;3.10;;;22.90;67.10;;;;;;4940700;29;20055;-88
2022/07/17 09:00:24;;;;;;;6.40;2.40;;;23.00;64.90;;;;;;4962701;28;20110;-88
2022/07/17 09:03:02;;;;;;;2.97;2.30;;;23.00;64.70;;;;;;4965848;28;20101;-91
2022/07/17 09:05:36;;;;;;;5.15;2.42;;;23.20;63.70;;;;;;4985436;28;20086;-88
2022/07/17 09:08:04;;;;;;;5.60;2.28;;;23.30;64.00;;;;;;4959760;28;20105;-88
2022/07/17 09:10:39;;;;;;;2.50;2.30;;;23.40;62.70;;;;;;4982213;28;20047;-88
2022/07/17 09:13:24;;;;;;;5.20;2.15;;;23.50;62.10;;;;;;4976782;28;20085;-90
2022/07/17 09:16:06;;;;;;;3.25;2.60;;;23.60;61.70;;;;;;4987258;28;20106;-89
2022/07/17 09:18:46;;;;;;;3.22;2.00;;;23.60;61.50;;;;;;5002757;28;20050;-90
2022/07/17 09:21:25;;;;;;;2.65;2.42;;;23.70;61.90;;;;;;4961245;28;20145;-89
2022/07/17 09:24:07;;;;;;;4.55;2.95;;;23.80;60.50;;;;;;4971405;28;20524;-89
2022/07/17 09:26:34;;;;;;;3.08;2.28;;;23.90;61.40;;;;;;4994900;28;20042;-90
2022/07/17 09:29:06;;;;;;;2.63;2.30;;;24.00;60.40;;;;;;4980947;28;20090;-90
2022/07/17 09:31:33;;;;;;;3.47;2.58;;;24.00;58.70;;;;;;4991256;28;20060;-90
2022/07/17 09:34:01;;;;;;;2.40;2.17;;;24.10;60.00;;;;;;5006631;28;20570;-90
2022/07/17 09:36:28;;;;;;;3.65;2.08;;;24.20;59.60;;;;;;4960796;28;20076;-89
2022/07/17 09:38:56;;;;;;;2.70;2.28;;;24.30;59.60;;;;;;4971189;28;20392;-90
2022/07/17 09:41:25;;;;;;;4.00;2.78;;;24.50;59.50;;;;;;4959361;28;20121;-89
2022/07/17 09:43:57;;;;;;;5.90;2.17;;;24.70;58.70;;;;;;4975860;28;20101;-89
2022/07/17 09:46:33;;;;;;;2.70;2.20;;;24.70;56.70;;;;;;4977759;28;20134;-90
2022/07/17 09:49:09;;;;;;;2.50;2.20;;;24.70;57.40;;;;;;4970529;28;20037;-89
2022/07/17 09:51:41;;;;;;;5.43;2.30;;;24.70;57.60;;;;;;5005633;28;20042;-89
2022/07/17 09:54:13;;;;;;;3.97;2.17;;;24.80;56.80;;;;;;4981667;28;20047;-88
2022/07/17 09:56:47;;;;;;;5.45;2.00;;;24.80;55.00;;;;;;4961756;28;20074;-89
2022/07/17 09:59:19;;;;;;;4.65;2.35;;;24.80;54.30;;;;;;4977809;28;20129;-89
2022/07/17 10:01:51;;;;;;;3.20;2.25;;;24.80;56.40;;;;;;4968133;28;20149;-89
2022/07/17 10:04:23;;;;;;;4.55;2.20;;;24.90;56.50;;;;;;4975643;28;20482;-89
2022/07/17 10:06:55;;;;;;;4.18;2.40;;;24.90;53.60;;;;;;4980215;28;20039;-89
2022/07/17 10:09:27;;;;;;;5.82;2.33;;;24.90;54.60;;;;;;4992351;28;20409;-90
2022/07/17 10:11:54;;;;;;;2.38;2.17;;;25.00;55.50;;;;;;4976621;28;20138;-89
2022/07/17 10:14:26;;;;;;;3.92;2.20;;;25.20;57.00;;;;;;4972890;28;20038;-88
2022/07/17 10:17:07;;;;;;;2.67;1.97;;;25.40;55.50;;;;;;4959817;28;20410;-89
2022/07/17 10:19:44;;;;;;;3.20;2.17;;;25.60;54.20;;;;;;4990122;28;20050;-89
2022/07/17 10:22:11;;;;;;;2.33;2.13;;;25.70;52.40;;;;;;5003266;28;20145;-89
2022/07/17 10:24:50;;;;;;;2.80;1.70;;;25.70;52.30;;;;;;4988833;28;20050;-89
2022/07/17 10:27:25;;;;;;;1.98;1.80;;;25.70;55.00;;;;;;4988665;28;20070;-89
2022/07/17 10:30:06;;;;;;;6.68;2.38;;;26.00;54.90;;;;;;4973099;28;20050;-89
2022/07/17 10:32:38;;;;;;;2.13;1.92;;;26.10;53.50;;;;;;4954009;29;20535;-88
2022/07/17 10:35:11;;;;;;;2.63;2.13;;;26.10;52.10;;;;;;4979556;28;20057;-88
2022/07/17 10:37:37;;;;;;;3.35;1.80;;;26.10;51.10;;;;;;4973106;28;20318;-88
2022/07/17 10:40:17;;;;;;;2.67;1.70;;;26.00;50.20;;;;;;5004734;28;20070;-86
2022/07/17 10:42:57;;;;;;;3.05;1.80;;;26.00;49.30;;;;;;4981457;28;20524;-86
2022/07/17 10:45:27;;;;;;;3.42;1.95;;;26.10;49.20;;;;;;4972216;28;20130;-87
2022/07/17 10:48:06;;;;;;;2.47;1.65;;;26.20;51.00;;;;;;4967351;28;20130;-87
2022/07/17 10:50:38;;;;;;;2.22;1.77;;;26.20;49.80;;;;;;4989864;28;20046;-88
2022/07/17 10:53:18;;;;;;;7.15;2.20;;;26.30;49.40;;;;;;4979004;28;20049;-88
2022/07/17 10:55:47;;;;;;;3.10;1.98;;;26.40;49.70;;;;;;4986419;28;20050;-88
2022/07/17 10:58:38;;;;;;;3.78;2.03;;;26.40;49.20;;;;;;4971092;28;20439;-88
2022/07/17 11:01:19;;;;;;;3.90;1.67;;;26.30;49.70;;;;;;4968616;28;20051;-88
2022/07/17 11:04:00;;;;;;;1.88;1.63;;;26.40;49.20;;;;;;4999084;28;20049;-87
2022/07/17 11:06:37;;;;;;;2.30;2.00;;;26.40;48.70;;;;;;4971424;28;20071;-88
2022/07/17 11:09:11;;;;;;;3.70;2.03;;;26.60;49.40;;;;;;4981133;28;20050;-88
2022/07/17 11:11:46;;;;;;;3.70;1.92;;;26.70;50.40;;;;;;4977182;28;20070;-87
2022/07/17 11:14:24;;;;;;;4.68;1.98;;;26.90;49.50;;;;;;4968887;28;20510;-86
2022/07/17 11:16:57;;;;;;;3.05;2.00;;;27.00;49.40;;;;;;4985375;28;20049;-87
2022/07/17 11:19:38;;;;;;;4.63;2.05;;;27.00;47.80;;;;;;4974917;28;20053;-87
2022/07/17 11:22:09;;;;;;;2.72;1.55;;;27.10;48.10;;;;;;4969900;28;20053;-87
2022/07/17 11:24:48;;;;;;;2.40;2.10;;;27.20;47.50;;;;;;4972587;28;20042;-87
2022/07/17 11:27:20;;;;;;;3.80;2.15;;;27.20;47.10;;;;;;4960240;28;20046;-87
2022/07/17 11:29:48;;;;;;;5.88;1.80;;;27.20;48.10;;;;;;4956701;28;20099;-88
2022/07/17 11:32:20;;;;;;;2.55;2.13;;;27.40;48.50;;;;;;4977886;28;20128;-88
2022/07/17 11:34:52;;;;;;;3.40;2.60;;;27.50;47.00;;;;;;4976891;28;20045;-88
2022/07/17 11:37:29;;;;;;;2.13;1.80;;;27.50;46.50;;;;;;4980573;28;20068;-88
2022/07/17 11:40:02;;;;;;;3.05;1.80;;;27.40;45.80;;;;;;4972424;28;20489;-88
2022/07/17 11:42:28;;;;;;;2.10;1.80;;;27.30;47.10;;;;;;4989817;28;20114;-87
2022/07/17 11:44:56;;;;;;;3.17;1.80;;;27.30;46.30;;;;;;4975519;28;20113;-88
2022/07/17 11:47:28;;;;;;;3.85;1.83;;;27.30;47.60;;;;;;4975509;28;20043;-87
2022/07/17 11:50:14;;;;;;;3.35;2.00;;;27.50;49.00;;;;;;4975329;28;20074;-88
2022/07/17 11:52:51;;;;;;;3.40;2.25;;;27.90;48.20;;;;;;4971586;28;20129;-86
2022/07/17 11:55:22;;;;;;;2.40;2.20;;;27.90;47.00;;;;;;4985534;28;20388;-88
2022/07/17 11:57:56;;;;;;;2.22;1.83;;;27.80;46.60;;;;;;4989311;28;20043;-88
2022/07/17 12:00:28;;;;;;;2.67;1.80;;;27.90;47.40;;;;;;4956903;28;20043;-87
2022/07/17 12:03:05;;;;;;;2.83;2.03;;;28.10;46.20;;;;;;5004056;28;20525;-87
2022/07/17 12:05:35;;;;;;;4.78;2.08;;;28.10;45.70;;;;;;4972183;28;20149;-88
2022/07/17 12:08:20;;;;;;;4.20;2.10;;;28.20;46.50;;;;;;4977476;28;20082;-87
2022/07/17 12:11:03;;;;;;;2.25;1.90;;;28.30;45.70;;;;;;5003687;28;20133;-87
2022/07/17 12:13:47;;;;;;;4.53;2.05;;;28.40;45.90;;;;;;5001926;28;20114;-87
2022/07/17 12:16:26;;;;;;;3.15;2.20;;;28.60;46.00;;;;;;4996153;28;20054;-87
2022/07/17 12:19:08;;;;;;;5.88;1.95;;;28.60;45.70;;;;;;4960258;28;20051;-87
2022/07/17 12:22:02;;;;;;;2.00;1.80;;;28.70;44.70;;;;;;4969708;28;20077;-87
2022/07/17 12:24:44;;;;;;;2.88;2.10;;;28.70;43.90;;;;;;4987159;28;20459;-87
2022/07/17 12:27:17;;;;;;;3.65;2.00;;;28.70;44.50;;;;;;5007983;28;20037;-88
2022/07/17 12:29:49;;;;;;;3.00;1.85;;;28.80;44.20;;;;;;4956355;28;20431;-88
2022/07/17 12:32:23;;;;;;;3.42;2.05;;;28.80;44.00;;;;;;4975774;28;20457;-88
2022/07/17 12:34:56;;;;;;;1.92;1.83;;;28.90;43.90;;;;;;4973844;28;20074;-87
2022/07/17 12:37:23;;;;;;;3.63;1.92;;;28.90;45.50;;;;;;4984753;28;20073;-88
2022/07/17 12:39:51;;;;;;;4.78;2.40;;;28.90;44.80;;;;;;4974999;28;20046;-88
2022/07/17 12:42:18;;;;;;;4.05;2.25;;;29.00;44.60;;;;;;4989951;28;20178;-88
2022/07/17 12:44:45;;;;;;;2.40;2.10;;;28.90;43.40;;;;;;4984519;28;20421;-87
2022/07/17 12:47:12;;;;;;;2.25;1.88;;;29.00;44.00;;;;;;5006159;28;20089;-87
2022/07/17 12:49:39;;;;;;;2.15;1.80;;;28.90;43.50;;;;;;4989155;28;20530;-87
2022/07/17 12:52:13;;;;;;;3.67;1.73;;;28.90;43.60;;;;;;5003824;28;20110;-87
2022/07/17 12:54:40;;;;;;;2.50;2.00;;;29.10;42.90;;;;;;4976355;28;20297;-87
2022/07/17 12:57:12;;;;;;;3.75;1.85;;;29.20;43.10;;;;;;4989546;28;20042;-87
2022/07/17 12:59:39;;;;;;;5.60;1.80;;;29.50;44.50;;;;;;4979544;28;20478;-88
2022/07/17 13:02:06;;;;;;;3.38;1.90;;;29.70;43.20;;;;;;4957806;28;20121;-88
2022/07/17 13:04:37;;;;;;;2.20;1.83;;;29.80;42.10;;;;;;4974718;28;20425;-87
2022/07/17 13:07:09;;;;;;;2.88;1.80;;;29.90;41.80;;;;;;4976911;28;20042;-86
2022/07/17 13:09:41;;;;;;;2.47;1.90;;;29.90;41.60;;;;;;4979680;28;20042;-88
2022/07/17 13:12:13;;;;;;;2.25;2.00;;;30.00;41.90;;;;;;4955122;28;20046;-87
2022/07/17 13:14:45;;;;;;;2.25;1.80;;;30.00;42.30;;;;;;4959631;28;20142;-87